sensor_id;sensor_type;location;lat;lon;timestamp;P1;durP1;ratioP1;P2;durP2;ratioP2
2061;SDS011;11070;51.336;12.340;2023-05-07T00:01:45;17.37;;;13.13;;
2061;SDS011;11070;51.336;12.340;2023-05-07T00:04:11;15.97;;;12.10;;
2061;SDS011;11070;51.336;12.340;2023-05-07T00:06:38;15.57;;;12.27;;
2061;SDS011;11070;51.336;12.340;2023-05-07T00:09:04;16.83;;;13.30;;
2061;SDS011;11070;51.336;12.340;2023-05-07T00:11:31;14.80;;;12.18;;
2061;SDS011;11070;51.336;12.340;2023-05-07T00:13:57;18.88;;;13.38;;
2061;SDS011;11070;51.336;12.340;2023-05-07T00:16:22;15.20;;;11.80;;
2061;SDS011;11070;51.336;12.340;2023-05-07T00:18:48;17.13;;;13.63;;
2061;SDS011;11070;51.336;12.340;2023-05-07T00:21:14;16.30;;;12.47;;
2061;SDS011;11070;51.336;12.340;2023-05-07T00:23:40;15.37;;;11.80;;
2061;SDS011;11070;51.336;12.340;2023-05-07T00:26:05;16.00;;;13.07;;
2061;SDS011;11070;51.336;12.340;2023-05-07T00:28:31;14.67;;;11.10;;
2061;SDS011;11070;51.336;12.340;2023-05-07T00:30:57;14.00;;;11.40;;
2061;SDS011;11070;51.336;12.340;2023-05-07T00:33:22;13.93;;;11.30;;
2061;SDS011;11070;51.336;12.340;2023-05-07T00:35:48;13.33;;;11.40;;
2061;SDS011;11070;51.336;12.340;2023-05-07T00:38:14;12.80;;;11.23;;
2061;SDS011;11070;51.336;12.340;2023-05-07T00:40:40;15.87;;;12.20;;
2061;SDS011;11070;51.336;12.340;2023-05-07T00:43:06;14.10;;;11.83;;
2061;SDS011;11070;51.336;12.340;2023-05-07T00:45:32;14.18;;;11.32;;
2061;SDS011;11070;51.336;12.340;2023-05-07T00:48:01;15.13;;;11.32;;
2061;SDS011;11070;51.336;12.340;2023-05-07T00:50:28;14.80;;;11.93;;
2061;SDS011;11070;51.336;12.340;2023-05-07T00:52:54;13.98;;;12.18;;
2061;SDS011;11070;51.336;12.340;2023-05-07T00:55:21;13.67;;;11.57;;
2061;SDS011;11070;51.336;12.340;2023-05-07T00:57:47;14.98;;;11.90;;
2061;SDS011;11070;51.336;12.340;2023-05-07T01:00:14;16.95;;;12.65;;
2061;SDS011;11070;51.336;12.340;2023-05-07T01:02:40;15.67;;;12.37;;
2061;SDS011;11070;51.336;12.340;2023-05-07T01:05:16;16.27;;;13.02;;
2061;SDS011;11070;51.336;12.340;2023-05-07T01:07:43;16.63;;;12.43;;
2061;SDS011;11070;51.336;12.340;2023-05-07T01:10:09;14.35;;;11.75;;
2061;SDS011;11070;51.336;12.340;2023-05-07T01:12:36;16.08;;;13.07;;
2061;SDS011;11070;51.336;12.340;2023-05-07T01:15:03;14.95;;;12.10;;
2061;SDS011;11070;51.336;12.340;2023-05-07T01:17:40;15.05;;;12.18;;
2061;SDS011;11070;51.336;12.340;2023-05-07T01:20:07;17.48;;;13.10;;
2061;SDS011;11070;51.336;12.340;2023-05-07T01:22:35;17.42;;;13.23;;
2061;SDS011;11070;51.336;12.340;2023-05-07T01:25:05;17.40;;;13.80;;
2061;SDS011;11070;51.336;12.340;2023-05-07T01:27:35;17.42;;;13.90;;
2061;SDS011;11070;51.336;12.340;2023-05-07T01:30:05;19.40;;;14.10;;
2061;SDS011;11070;51.336;12.340;2023-05-07T01:32:38;17.40;;;14.05;;
2061;SDS011;11070;51.336;12.340;2023-05-07T01:35:09;20.08;;;14.70;;
2061;SDS011;11070;51.336;12.340;2023-05-07T01:37:37;20.45;;;15.27;;
2061;SDS011;11070;51.336;12.340;2023-05-07T01:40:04;18.40;;;14.45;;
2061;SDS011;11070;51.336;12.340;2023-05-07T01:42:32;21.02;;;15.07;;
2061;SDS011;11070;51.336;12.340;2023-05-07T01:44:58;18.10;;;13.93;;
2061;SDS011;11070;51.336;12.340;2023-05-07T01:47:24;20.13;;;14.17;;
2061;SDS011;11070;51.336;12.340;2023-05-07T01:49:50;20.67;;;14.98;;
2061;SDS011;11070;51.336;12.340;2023-05-07T01:52:16;20.03;;;15.20;;
2061;SDS011;11070;51.336;12.340;2023-05-07T01:54:42;20.43;;;15.93;;
2061;SDS011;11070;51.336;12.340;2023-05-07T01:57:08;19.50;;;14.90;;
2061;SDS011;11070;51.336;12.340;2023-05-07T01:59:33;21.00;;;16.20;;
2061;SDS011;11070;51.336;12.340;2023-05-07T02:01:59;23.10;;;17.30;;
2061;SDS011;11070;51.336;12.340;2023-05-07T02:04:25;23.40;;;17.23;;
2061;SDS011;11070;51.336;12.340;2023-05-07T02:06:51;25.83;;;18.10;;
2061;SDS011;11070;51.336;12.340;2023-05-07T02:09:17;24.65;;;17.73;;
2061;SDS011;11070;51.336;12.340;2023-05-07T02:11:44;26.30;;;19.00;;
2061;SDS011;11070;51.336;12.340;2023-05-07T02:14:09;24.83;;;18.13;;
2061;SDS011;11070;51.336;12.340;2023-05-07T02:16:35;22.67;;;17.27;;
2061;SDS011;11070;51.336;12.340;2023-05-07T02:19:01;27.40;;;19.10;;
2061;SDS011;11070;51.336;12.340;2023-05-07T02:21:27;25.70;;;18.57;;
2061;SDS011;11070;51.336;12.340;2023-05-07T02:23:53;23.80;;;17.83;;
2061;SDS011;11070;51.336;12.340;2023-05-07T02:26:19;24.47;;;18.47;;
2061;SDS011;11070;51.336;12.340;2023-05-07T02:28:44;26.00;;;18.40;;
2061;SDS011;11070;51.336;12.340;2023-05-07T02:31:10;26.30;;;19.40;;
2061;SDS011;11070;51.336;12.340;2023-05-07T02:33:36;25.10;;;19.30;;
2061;SDS011;11070;51.336;12.340;2023-05-07T02:36:08;25.50;;;18.97;;
2061;SDS011;11070;51.336;12.340;2023-05-07T02:38:34;27.02;;;19.58;;
2061;SDS011;11070;51.336;12.340;2023-05-07T02:41:00;24.50;;;18.50;;
2061;SDS011;11070;51.336;12.340;2023-05-07T02:43:26;23.73;;;17.80;;
2061;SDS011;11070;51.336;12.340;2023-05-07T02:46:07;24.07;;;19.37;;
2061;SDS011;11070;51.336;12.340;2023-05-07T02:48:34;23.98;;;18.75;;
2061;SDS011;11070;51.336;12.340;2023-05-07T02:51:00;26.23;;;18.40;;
2061;SDS011;11070;51.336;12.340;2023-05-07T02:53:26;26.75;;;18.92;;
2061;SDS011;11070;51.336;12.340;2023-05-07T02:55:56;23.67;;;17.70;;
2061;SDS011;11070;51.336;12.340;2023-05-07T02:58:22;24.25;;;18.02;;
2061;SDS011;11070;51.336;12.340;2023-05-07T03:00:48;22.95;;;17.88;;
2061;SDS011;11070;51.336;12.340;2023-05-07T03:03:14;24.27;;;19.40;;
2061;SDS011;11070;51.336;12.340;2023-05-07T03:05:40;24.80;;;20.60;;
2061;SDS011;11070;51.336;12.340;2023-05-07T03:08:06;24.85;;;18.30;;
2061;SDS011;11070;51.336;12.340;2023-05-07T03:10:33;25.35;;;19.27;;
2061;SDS011;11070;51.336;12.340;2023-05-07T03:12:58;24.67;;;18.53;;
2061;SDS011;11070;51.336;12.340;2023-05-07T03:15:24;24.60;;;18.70;;
2061;SDS011;11070;51.336;12.340;2023-05-07T03:17:50;22.43;;;17.83;;
2061;SDS011;11070;51.336;12.340;2023-05-07T03:20:16;22.77;;;17.57;;
2061;SDS011;11070;51.336;12.340;2023-05-07T03:22:41;23.30;;;17.63;;
2061;SDS011;11070;51.336;12.340;2023-05-07T03:25:08;24.53;;;19.20;;
2061;SDS011;11070;51.336;12.340;2023-05-07T03:27:34;24.13;;;17.65;;
2061;SDS011;11070;51.336;12.340;2023-05-07T03:30:00;22.13;;;17.50;;
2061;SDS011;11070;51.336;12.340;2023-05-07T03:32:26;26.13;;;18.67;;
2061;SDS011;11070;51.336;12.340;2023-05-07T03:34:51;26.53;;;18.53;;
2061;SDS011;11070;51.336;12.340;2023-05-07T03:37:17;21.03;;;17.03;;
2061;SDS011;11070;51.336;12.340;2023-05-07T03:39:43;23.90;;;18.38;;
2061;SDS011;11070;51.336;12.340;2023-05-07T03:42:09;23.07;;;17.97;;
2061;SDS011;11070;51.336;12.340;2023-05-07T03:44:35;24.93;;;18.50;;
2061;SDS011;11070;51.336;12.340;2023-05-07T03:47:01;23.95;;;18.63;;
2061;SDS011;11070;51.336;12.340;2023-05-07T03:49:27;23.50;;;18.30;;
2061;SDS011;11070;51.336;12.340;2023-05-07T03:51:53;23.90;;;17.57;;
2061;SDS011;11070;51.336;12.340;2023-05-07T03:54:19;25.40;;;19.13;;
2061;SDS011;11070;51.336;12.340;2023-05-07T03:56:44;23.30;;;18.00;;
2061;SDS011;11070;51.336;12.340;2023-05-07T03:59:10;24.50;;;18.40;;
2061;SDS011;11070;51.336;12.340;2023-05-07T04:01:37;23.88;;;17.88;;
2061;SDS011;11070;51.336;12.340;2023-05-07T04:04:02;24.90;;;19.10;;
2061;SDS011;11070;51.336;12.340;2023-05-07T04:06:29;24.38;;;19.02;;
2061;SDS011;11070;51.336;12.340;2023-05-07T04:08:55;23.33;;;17.73;;
2061;SDS011;11070;51.336;12.340;2023-05-07T04:11:21;25.77;;;19.47;;
2061;SDS011;11070;51.336;12.340;2023-05-07T04:13:46;23.53;;;18.17;;
2061;SDS011;11070;51.336;12.340;2023-05-07T04:16:12;22.23;;;17.77;;
2061;SDS011;11070;51.336;12.340;2023-05-07T04:18:38;24.47;;;18.30;;
2061;SDS011;11070;51.336;12.340;2023-05-07T04:21:04;23.35;;;18.73;;
2061;SDS011;11070;51.336;12.340;2023-05-07T04:23:30;27.48;;;17.90;;
2061;SDS011;11070;51.336;12.340;2023-05-07T04:25:56;25.77;;;19.50;;
2061;SDS011;11070;51.336;12.340;2023-05-07T04:28:22;22.52;;;17.55;;
2061;SDS011;11070;51.336;12.340;2023-05-07T04:30:48;21.48;;;17.27;;
2061;SDS011;11070;51.336;12.340;2023-05-07T04:33:14;25.52;;;19.80;;
2061;SDS011;11070;51.336;12.340;2023-05-07T04:35:43;23.77;;;18.38;;
2061;SDS011;11070;51.336;12.340;2023-05-07T04:38:09;24.93;;;17.93;;
2061;SDS011;11070;51.336;12.340;2023-05-07T04:40:35;24.20;;;18.10;;
2061;SDS011;11070;51.336;12.340;2023-05-07T04:43:01;25.85;;;18.00;;
2061;SDS011;11070;51.336;12.340;2023-05-07T04:45:27;24.90;;;18.97;;
2061;SDS011;11070;51.336;12.340;2023-05-07T04:47:52;25.57;;;18.67;;
2061;SDS011;11070;51.336;12.340;2023-05-07T04:50:18;24.20;;;18.10;;
2061;SDS011;11070;51.336;12.340;2023-05-07T04:52:45;23.75;;;17.60;;
2061;SDS011;11070;51.336;12.340;2023-05-07T04:55:10;28.93;;;18.70;;
2061;SDS011;11070;51.336;12.340;2023-05-07T04:57:36;22.77;;;17.83;;
2061;SDS011;11070;51.336;12.340;2023-05-07T05:00:04;27.95;;;18.92;;
2061;SDS011;11070;51.336;12.340;2023-05-07T05:02:33;21.52;;;16.67;;
2061;SDS011;11070;51.336;12.340;2023-05-07T05:04:58;26.47;;;17.33;;
2061;SDS011;11070;51.336;12.340;2023-05-07T05:07:24;22.52;;;16.38;;
2061;SDS011;11070;51.336;12.340;2023-05-07T05:09:50;23.53;;;17.70;;
2061;SDS011;11070;51.336;12.340;2023-05-07T05:12:16;22.03;;;16.50;;
2061;SDS011;11070;51.336;12.340;2023-05-07T05:14:41;22.07;;;17.10;;
2061;SDS011;11070;51.336;12.340;2023-05-07T05:17:07;21.90;;;17.88;;
2061;SDS011;11070;51.336;12.340;2023-05-07T05:19:33;21.30;;;16.00;;
2061;SDS011;11070;51.336;12.340;2023-05-07T05:21:59;22.47;;;15.80;;
2061;SDS011;11070;51.336;12.340;2023-05-07T05:24:26;23.38;;;16.70;;
2061;SDS011;11070;51.336;12.340;2023-05-07T05:26:53;20.07;;;15.87;;
2061;SDS011;11070;51.336;12.340;2023-05-07T05:29:18;21.63;;;15.75;;
2061;SDS011;11070;51.336;12.340;2023-05-07T05:31:44;20.27;;;15.60;;
2061;SDS011;11070;51.336;12.340;2023-05-07T05:34:10;18.50;;;15.70;;
2061;SDS011;11070;51.336;12.340;2023-05-07T05:36:35;17.03;;;14.27;;
2061;SDS011;11070;51.336;12.340;2023-05-07T05:39:01;16.30;;;13.27;;
2061;SDS011;11070;51.336;12.340;2023-05-07T05:41:27;17.03;;;14.07;;
2061;SDS011;11070;51.336;12.340;2023-05-07T05:43:52;14.63;;;12.73;;
2061;SDS011;11070;51.336;12.340;2023-05-07T05:46:18;17.03;;;13.67;;
2061;SDS011;11070;51.336;12.340;2023-05-07T05:48:44;13.83;;;12.40;;
2061;SDS011;11070;51.336;12.340;2023-05-07T05:51:09;14.57;;;12.57;;
2061;SDS011;11070;51.336;12.340;2023-05-07T05:53:35;13.20;;;11.80;;
2061;SDS011;11070;51.336;12.340;2023-05-07T05:56:01;15.93;;;13.25;;
2061;SDS011;11070;51.336;12.340;2023-05-07T05:58:27;14.40;;;12.33;;
2061;SDS011;11070;51.336;12.340;2023-05-07T06:00:53;15.63;;;12.40;;
2061;SDS011;11070;51.336;12.340;2023-05-07T06:03:19;14.15;;;12.20;;
2061;SDS011;11070;51.336;12.340;2023-05-07T06:05:45;15.50;;;12.38;;
2061;SDS011;11070;51.336;12.340;2023-05-07T06:08:11;16.07;;;12.47;;
2061;SDS011;11070;51.336;12.340;2023-05-07T06:10:37;14.60;;;12.63;;
2061;SDS011;11070;51.336;12.340;2023-05-07T06:13:03;14.55;;;12.52;;
2061;SDS011;11070;51.336;12.340;2023-05-07T06:15:28;15.50;;;12.83;;
2061;SDS011;11070;51.336;12.340;2023-05-07T06:17:54;16.13;;;12.80;;
2061;SDS011;11070;51.336;12.340;2023-05-07T06:20:22;15.40;;;12.80;;
2061;SDS011;11070;51.336;12.340;2023-05-07T06:22:48;15.13;;;13.07;;
2061;SDS011;11070;51.336;12.340;2023-05-07T06:25:13;19.63;;;13.67;;
2061;SDS011;11070;51.336;12.340;2023-05-07T06:27:40;17.67;;;14.85;;
2061;SDS011;11070;51.336;12.340;2023-05-07T06:30:06;15.45;;;13.25;;
2061;SDS011;11070;51.336;12.340;2023-05-07T06:32:33;15.00;;;12.90;;
2061;SDS011;11070;51.336;12.340;2023-05-07T06:34:58;16.13;;;13.70;;
2061;SDS011;11070;51.336;12.340;2023-05-07T06:37:25;16.30;;;14.10;;
2061;SDS011;11070;51.336;12.340;2023-05-07T06:39:51;15.80;;;13.20;;
2061;SDS011;11070;51.336;12.340;2023-05-07T06:42:16;16.27;;;13.70;;
2061;SDS011;11070;51.336;12.340;2023-05-07T06:44:42;17.77;;;14.00;;
2061;SDS011;11070;51.336;12.340;2023-05-07T06:47:08;18.43;;;14.90;;
2061;SDS011;11070;51.336;12.340;2023-05-07T06:49:33;19.60;;;15.00;;
2061;SDS011;11070;51.336;12.340;2023-05-07T06:51:59;18.90;;;15.03;;
2061;SDS011;11070;51.336;12.340;2023-05-07T06:54:25;17.53;;;14.07;;
2061;SDS011;11070;51.336;12.340;2023-05-07T06:56:50;17.10;;;14.07;;
2061;SDS011;11070;51.336;12.340;2023-05-07T06:59:16;18.80;;;14.00;;
2061;SDS011;11070;51.336;12.340;2023-05-07T07:01:42;15.17;;;13.43;;
2061;SDS011;11070;51.336;12.340;2023-05-07T07:04:07;16.40;;;13.67;;
2061;SDS011;11070;51.336;12.340;2023-05-07T07:06:33;15.20;;;13.37;;
2061;SDS011;11070;51.336;12.340;2023-05-07T07:08:59;16.13;;;12.93;;
2061;SDS011;11070;51.336;12.340;2023-05-07T07:11:25;15.75;;;13.07;;
2061;SDS011;11070;51.336;12.340;2023-05-07T07:13:51;17.20;;;13.53;;
2061;SDS011;11070;51.336;12.340;2023-05-07T07:16:18;15.10;;;13.45;;
2061;SDS011;11070;51.336;12.340;2023-05-07T07:18:44;20.73;;;13.57;;
2061;SDS011;11070;51.336;12.340;2023-05-07T07:21:10;15.27;;;12.70;;
2061;SDS011;11070;51.336;12.340;2023-05-07T07:23:35;15.07;;;12.80;;
2061;SDS011;11070;51.336;12.340;2023-05-07T07:26:01;13.37;;;11.90;;
2061;SDS011;11070;51.336;12.340;2023-05-07T07:28:27;13.97;;;12.43;;
2061;SDS011;11070;51.336;12.340;2023-05-07T07:30:52;13.17;;;11.27;;
2061;SDS011;11070;51.336;12.340;2023-05-07T07:33:18;13.83;;;11.20;;
2061;SDS011;11070;51.336;12.340;2023-05-07T07:35:44;13.90;;;12.37;;
2061;SDS011;11070;51.336;12.340;2023-05-07T07:38:09;13.23;;;11.83;;
2061;SDS011;11070;51.336;12.340;2023-05-07T07:40:35;12.93;;;11.60;;
2061;SDS011;11070;51.336;12.340;2023-05-07T07:43:01;12.00;;;10.57;;
2061;SDS011;11070;51.336;12.340;2023-05-07T07:45:27;11.07;;;9.93;;
2061;SDS011;11070;51.336;12.340;2023-05-07T07:47:52;12.47;;;11.27;;
2061;SDS011;11070;51.336;12.340;2023-05-07T07:50:18;11.87;;;10.60;;
2061;SDS011;11070;51.336;12.340;2023-05-07T07:52:44;11.77;;;10.57;;
2061;SDS011;11070;51.336;12.340;2023-05-07T07:55:10;11.50;;;10.30;;
2061;SDS011;11070;51.336;12.340;2023-05-07T07:57:35;11.43;;;10.30;;
2061;SDS011;11070;51.336;12.340;2023-05-07T08:00:01;12.10;;;10.23;;
2061;SDS011;11070;51.336;12.340;2023-05-07T08:02:28;11.68;;;10.57;;
2061;SDS011;11070;51.336;12.340;2023-05-07T08:04:53;10.10;;;9.10;;
2061;SDS011;11070;51.336;12.340;2023-05-07T08:07:19;10.50;;;9.50;;
2061;SDS011;11070;51.336;12.340;2023-05-07T08:09:47;11.77;;;10.57;;
2061;SDS011;11070;51.336;12.340;2023-05-07T08:12:13;10.80;;;9.80;;
2061;SDS011;11070;51.336;12.340;2023-05-07T08:14:39;9.80;;;8.80;;
2061;SDS011;11070;51.336;12.340;2023-05-07T08:17:05;10.13;;;9.13;;
2061;SDS011;11070;51.336;12.340;2023-05-07T08:19:31;9.50;;;8.70;;
2061;SDS011;11070;51.336;12.340;2023-05-07T08:21:57;10.93;;;9.83;;
2061;SDS011;11070;51.336;12.340;2023-05-07T08:24:22;11.00;;;9.90;;
2061;SDS011;11070;51.336;12.340;2023-05-07T08:26:48;10.00;;;9.10;;
2061;SDS011;11070;51.336;12.340;2023-05-07T08:29:14;9.15;;;8.25;;
2061;SDS011;11070;51.336;12.340;2023-05-07T08:31:40;10.10;;;9.10;;
2061;SDS011;11070;51.336;12.340;2023-05-07T08:34:06;9.37;;;8.43;;
2061;SDS011;11070;51.336;12.340;2023-05-07T08:36:32;9.67;;;8.67;;
2061;SDS011;11070;51.336;12.340;2023-05-07T08:38:58;8.93;;;8.05;;
2061;SDS011;11070;51.336;12.340;2023-05-07T08:41:24;8.63;;;7.75;;
2061;SDS011;11070;51.336;12.340;2023-05-07T08:43:50;9.80;;;8.90;;
2061;SDS011;11070;51.336;12.340;2023-05-07T08:46:17;9.10;;;8.23;;
2061;SDS011;11070;51.336;12.340;2023-05-07T08:48:50;10.63;;;9.63;;
2061;SDS011;11070;51.336;12.340;2023-05-07T08:51:17;10.50;;;9.50;;
2061;SDS011;11070;51.336;12.340;2023-05-07T08:53:44;10.35;;;9.27;;
2061;SDS011;11070;51.336;12.340;2023-05-07T08:56:11;10.15;;;8.70;;
2061;SDS011;11070;51.336;12.340;2023-05-07T08:58:37;10.30;;;9.30;;
2061;SDS011;11070;51.336;12.340;2023-05-07T09:01:07;10.07;;;9.07;;
2061;SDS011;11070;51.336;12.340;2023-05-07T09:03:45;10.30;;;9.30;;
2061;SDS011;11070;51.336;12.340;2023-05-07T09:06:11;9.95;;;9.05;;
2061;SDS011;11070;51.336;12.340;2023-05-07T09:08:37;10.60;;;9.60;;
2061;SDS011;11070;51.336;12.340;2023-05-07T09:11:03;10.40;;;9.40;;
2061;SDS011;11070;51.336;12.340;2023-05-07T09:13:29;10.83;;;9.50;;
2061;SDS011;11070;51.336;12.340;2023-05-07T09:15:55;10.02;;;9.13;;
2061;SDS011;11070;51.336;12.340;2023-05-07T09:18:21;9.77;;;8.77;;
2061;SDS011;11070;51.336;12.340;2023-05-07T09:20:50;9.38;;;8.50;;
2061;SDS011;11070;51.336;12.340;2023-05-07T09:23:16;10.50;;;9.50;;
2061;SDS011;11070;51.336;12.340;2023-05-07T09:25:41;11.70;;;9.50;;
2061;SDS011;11070;51.336;12.340;2023-05-07T09:28:07;11.40;;;10.30;;
2061;SDS011;11070;51.336;12.340;2023-05-07T09:30:35;10.55;;;9.55;;
2061;SDS011;11070;51.336;12.340;2023-05-07T09:33:01;11.48;;;9.93;;
2061;SDS011;11070;51.336;12.340;2023-05-07T09:35:28;10.20;;;9.20;;
2061;SDS011;11070;51.336;12.340;2023-05-07T09:37:58;10.82;;;9.82;;
2061;SDS011;11070;51.336;12.340;2023-05-07T09:40:29;10.35;;;9.18;;
2061;SDS011;11070;51.336;12.340;2023-05-07T09:42:56;10.48;;;9.48;;
2061;SDS011;11070;51.336;12.340;2023-05-07T09:45:25;10.70;;;9.70;;
2061;SDS011;11070;51.336;12.340;2023-05-07T09:47:53;10.48;;;9.48;;
2061;SDS011;11070;51.336;12.340;2023-05-07T09:50:28;10.05;;;9.15;;
2061;SDS011;11070;51.336;12.340;2023-05-07T09:52:55;10.35;;;9.45;;
2061;SDS011;11070;51.336;12.340;2023-05-07T09:55:22;9.82;;;8.82;;
2061;SDS011;11070;51.336;12.340;2023-05-07T09:57:52;11.00;;;9.75;;
2061;SDS011;11070;51.336;12.340;2023-05-07T10:00:19;10.63;;;9.63;;
2061;SDS011;11070;51.336;12.340;2023-05-07T10:02:46;11.00;;;9.95;;
2061;SDS011;11070;51.336;12.340;2023-05-07T10:05:19;13.98;;;9.95;;
2061;SDS011;11070;51.336;12.340;2023-05-07T10:07:47;9.93;;;9.02;;
2061;SDS011;11070;51.336;12.340;2023-05-07T10:10:14;11.00;;;9.95;;
2061;SDS011;11070;51.336;12.340;2023-05-07T10:12:40;10.90;;;9.80;;
2061;SDS011;11070;51.336;12.340;2023-05-07T10:15:06;10.38;;;9.40;;
2061;SDS011;11070;51.336;12.340;2023-05-07T10:17:36;9.85;;;8.95;;
2061;SDS011;11070;51.336;12.340;2023-05-07T10:20:06;10.20;;;9.13;;
2061;SDS011;11070;51.336;12.340;2023-05-07T10:22:37;9.40;;;8.60;;
2061;SDS011;11070;51.336;12.340;2023-05-07T10:25:14;9.40;;;8.50;;
2061;SDS011;11070;51.336;12.340;2023-05-07T10:27:50;8.45;;;7.70;;
2061;SDS011;11070;51.336;12.340;2023-05-07T10:33:19;8.48;;;7.68;;
2061;SDS011;11070;51.336;12.340;2023-05-07T10:35:48;8.60;;;7.80;;
2061;SDS011;11070;51.336;12.340;2023-05-07T10:38:14;9.10;;;8.30;;
2061;SDS011;11070;51.336;12.340;2023-05-07T10:40:40;9.00;;;8.10;;
2061;SDS011;11070;51.336;12.340;2023-05-07T10:43:06;8.73;;;7.47;;
2061;SDS011;11070;51.336;12.340;2023-05-07T10:45:32;12.80;;;7.67;;
2061;SDS011;11070;51.336;12.340;2023-05-07T10:50:37;8.05;;;7.35;;
2061;SDS011;11070;51.336;12.340;2023-05-07T10:53:20;7.80;;;7.18;;
2061;SDS011;11070;51.336;12.340;2023-05-07T10:55:47;7.65;;;6.95;;
2061;SDS011;11070;51.336;12.340;2023-05-07T10:58:26;8.30;;;7.60;;
2061;SDS011;11070;51.336;12.340;2023-05-07T11:01:02;8.45;;;7.65;;
2061;SDS011;11070;51.336;12.340;2023-05-07T11:03:28;9.77;;;8.88;;
2061;SDS011;11070;51.336;12.340;2023-05-07T11:06:16;11.60;;;10.48;;
2061;SDS011;11070;51.336;12.340;2023-05-07T11:08:57;11.50;;;10.32;;
2061;SDS011;11070;51.336;12.340;2023-05-07T11:14:12;11.52;;;10.35;;
2061;SDS011;11070;51.336;12.340;2023-05-07T11:16:39;11.85;;;10.73;;
2061;SDS011;11070;51.336;12.340;2023-05-07T11:19:06;10.32;;;9.32;;
2061;SDS011;11070;51.336;12.340;2023-05-07T11:21:36;11.60;;;10.50;;
2061;SDS011;11070;51.336;12.340;2023-05-07T11:24:03;11.55;;;10.45;;
2061;SDS011;11070;51.336;12.340;2023-05-07T11:26:30;9.88;;;8.98;;
2061;SDS011;11070;51.336;12.340;2023-05-07T11:29:15;9.98;;;9.07;;
2061;SDS011;11070;51.336;12.340;2023-05-07T11:31:52;9.57;;;8.77;;
2061;SDS011;11070;51.336;12.340;2023-05-07T11:34:23;9.27;;;8.35;;
2061;SDS011;11070;51.336;12.340;2023-05-07T11:36:50;8.40;;;7.70;;
2061;SDS011;11070;51.336;12.340;2023-05-07T11:39:24;9.55;;;8.75;;
2061;SDS011;11070;51.336;12.340;2023-05-07T11:41:50;9.82;;;9.00;;
2061;SDS011;11070;51.336;12.340;2023-05-07T11:44:15;11.73;;;9.20;;
2061;SDS011;11070;51.336;12.340;2023-05-07T11:46:42;8.97;;;8.03;;
2061;SDS011;11070;51.336;12.340;2023-05-07T11:49:09;9.57;;;8.68;;
2061;SDS011;11070;51.336;12.340;2023-05-07T11:51:35;8.87;;;8.17;;
2061;SDS011;11070;51.336;12.340;2023-05-07T11:54:03;9.13;;;8.33;;
2061;SDS011;11070;51.336;12.340;2023-05-07T11:56:29;10.45;;;8.13;;
2061;SDS011;11070;51.336;12.340;2023-05-07T11:58:59;8.68;;;7.82;;
2061;SDS011;11070;51.336;12.340;2023-05-07T12:01:24;8.77;;;7.87;;
2061;SDS011;11070;51.336;12.340;2023-05-07T12:03:50;10.40;;;9.40;;
2061;SDS011;11070;51.336;12.340;2023-05-07T12:06:16;12.20;;;9.03;;
2061;SDS011;11070;51.336;12.340;2023-05-07T12:08:43;10.25;;;9.25;;
2061;SDS011;11070;51.336;12.340;2023-05-07T12:11:13;9.77;;;8.85;;
2061;SDS011;11070;51.336;12.340;2023-05-07T12:13:50;10.48;;;9.45;;
2061;SDS011;11070;51.336;12.340;2023-05-07T12:16:16;11.60;;;9.90;;
2061;SDS011;11070;51.336;12.340;2023-05-07T12:18:43;11.07;;;9.88;;
2061;SDS011;11070;51.336;12.340;2023-05-07T12:21:09;10.20;;;9.25;;
2061;SDS011;11070;51.336;12.340;2023-05-07T12:23:36;9.35;;;8.43;;
2061;SDS011;11070;51.336;12.340;2023-05-07T12:26:03;10.45;;;9.45;;
2061;SDS011;11070;51.336;12.340;2023-05-07T12:28:29;9.40;;;8.40;;
2061;SDS011;11070;51.336;12.340;2023-05-07T12:30:55;9.45;;;8.57;;
2061;SDS011;11070;51.336;12.340;2023-05-07T12:33:26;9.70;;;8.80;;
2061;SDS011;11070;51.336;12.340;2023-05-07T12:35:53;8.40;;;7.60;;
2061;SDS011;11070;51.336;12.340;2023-05-07T12:38:20;9.00;;;8.20;;
2061;SDS011;11070;51.336;12.340;2023-05-07T12:40:47;9.20;;;8.30;;
2061;SDS011;11070;51.336;12.340;2023-05-07T12:43:28;9.77;;;8.80;;
2061;SDS011;11070;51.336;12.340;2023-05-07T12:45:55;10.38;;;9.23;;
2061;SDS011;11070;51.336;12.340;2023-05-07T12:48:24;10.82;;;9.65;;
2061;SDS011;11070;51.336;12.340;2023-05-07T12:50:55;10.38;;;9.32;;
2061;SDS011;11070;51.336;12.340;2023-05-07T12:53:23;9.88;;;8.85;;
2061;SDS011;11070;51.336;12.340;2023-05-07T12:55:51;9.15;;;8.30;;
2061;SDS011;11070;51.336;12.340;2023-05-07T12:58:29;11.23;;;8.20;;
2061;SDS011;11070;51.336;12.340;2023-05-07T13:00:56;8.00;;;7.30;;
2061;SDS011;11070;51.336;12.340;2023-05-07T13:05:58;8.27;;;7.55;;
2061;SDS011;11070;51.336;12.340;2023-05-07T13:08:26;8.30;;;7.60;;
2061;SDS011;11070;51.336;12.340;2023-05-07T13:10:57;8.30;;;7.60;;
2061;SDS011;11070;51.336;12.340;2023-05-07T13:13:23;8.05;;;7.22;;
2061;SDS011;11070;51.336;12.340;2023-05-07T13:15:50;7.82;;;7.13;;
2061;SDS011;11070;51.336;12.340;2023-05-07T13:18:16;8.17;;;7.47;;
2061;SDS011;11070;51.336;12.340;2023-05-07T13:20:42;8.30;;;7.50;;
2061;SDS011;11070;51.336;12.340;2023-05-07T13:23:07;7.87;;;7.17;;
2061;SDS011;11070;51.336;12.340;2023-05-07T13:25:33;7.23;;;6.60;;
2061;SDS011;11070;51.336;12.340;2023-05-07T13:27:59;7.57;;;6.87;;
2061;SDS011;11070;51.336;12.340;2023-05-07T13:30:24;7.60;;;6.90;;
2061;SDS011;11070;51.336;12.340;2023-05-07T13:32:51;8.10;;;7.40;;
2061;SDS011;11070;51.336;12.340;2023-05-07T13:35:20;8.27;;;7.07;;
2061;SDS011;11070;51.336;12.340;2023-05-07T13:37:46;8.70;;;7.80;;
2061;SDS011;11070;51.336;12.340;2023-05-07T13:40:13;7.50;;;6.90;;
2061;SDS011;11070;51.336;12.340;2023-05-07T13:42:39;7.50;;;6.90;;
2061;SDS011;11070;51.336;12.340;2023-05-07T13:45:05;8.57;;;7.57;;
2061;SDS011;11070;51.336;12.340;2023-05-07T13:47:31;7.72;;;6.88;;
2061;SDS011;11070;51.336;12.340;2023-05-07T13:49:56;7.27;;;6.60;;
2061;SDS011;11070;51.336;12.340;2023-05-07T13:52:22;7.87;;;7.07;;
2061;SDS011;11070;51.336;12.340;2023-05-07T13:54:47;7.40;;;6.60;;
2061;SDS011;11070;51.336;12.340;2023-05-07T13:57:13;6.93;;;6.33;;
2061;SDS011;11070;51.336;12.340;2023-05-07T13:59:39;6.90;;;6.27;;
2061;SDS011;11070;51.336;12.340;2023-05-07T14:02:05;6.70;;;6.10;;
2061;SDS011;11070;51.336;12.340;2023-05-07T14:04:31;6.73;;;6.17;;
2061;SDS011;11070;51.336;12.340;2023-05-07T14:06:56;6.30;;;5.80;;
2061;SDS011;11070;51.336;12.340;2023-05-07T14:09:22;7.00;;;6.30;;
2061;SDS011;11070;51.336;12.340;2023-05-07T14:11:48;6.47;;;5.87;;
2061;SDS011;11070;51.336;12.340;2023-05-07T14:14:16;6.97;;;6.28;;
2061;SDS011;11070;51.336;12.340;2023-05-07T14:16:42;6.30;;;5.80;;
2061;SDS011;11070;51.336;12.340;2023-05-07T14:19:08;6.10;;;5.60;;
2061;SDS011;11070;51.336;12.340;2023-05-07T14:21:34;6.60;;;5.90;;
2061;SDS011;11070;51.336;12.340;2023-05-07T14:23:59;6.70;;;6.20;;
2061;SDS011;11070;51.336;12.340;2023-05-07T14:26:25;5.72;;;5.28;;
2061;SDS011;11070;51.336;12.340;2023-05-07T14:28:52;5.50;;;5.10;;
2061;SDS011;11070;51.336;12.340;2023-05-07T14:31:20;6.00;;;5.60;;
2061;SDS011;11070;51.336;12.340;2023-05-07T14:33:46;6.03;;;5.53;;
2061;SDS011;11070;51.336;12.340;2023-05-07T14:36:11;5.93;;;5.40;;
2061;SDS011;11070;51.336;12.340;2023-05-07T14:38:37;6.03;;;5.53;;
2061;SDS011;11070;51.336;12.340;2023-05-07T14:41:03;5.60;;;5.20;;